createdAt,value
2023-04-05T00:01:42.990Z,44.50
2023-04-05T00:04:10.009Z,44.60
2023-04-05T00:06:37.004Z,44.50
2023-04-05T00:09:04.999Z,44.40
2023-04-05T00:11:33.044Z,44.50
2023-04-05T00:14:00.970Z,44.50
2023-04-05T00:16:29.146Z,44.40
2023-04-05T00:18:57.660Z,44.40
2023-04-05T00:21:24.743Z,44.40
2023-04-05T00:23:54.134Z,44.50
2023-04-05T00:26:21.509Z,44.40
2023-04-05T00:28:48.708Z,44.40
2023-04-05T00:31:15.789Z,44.50
2023-04-05T00:33:42.488Z,44.50
2023-04-05T00:36:11.646Z,44.60
2023-04-05T00:38:38.954Z,44.50
2023-04-05T00:41:05.786Z,44.50
2023-04-05T00:43:32.578Z,44.50
2023-04-05T00:45:59.400Z,44.50
2023-04-05T00:48:26.542Z,44.50
2023-04-05T00:50:53.441Z,44.60
2023-04-05T00:53:21.742Z,44.70
2023-04-05T00:55:49.441Z,44.50
2023-04-05T00:58:16.770Z,44.50
2023-04-05T01:00:47.695Z,44.50
2023-04-05T01:03:14.784Z,44.60
2023-04-05T01:05:49.765Z,44.50
2023-04-05T01:08:22.173Z,44.50
2023-04-05T01:10:56.953Z,44.60
2023-04-05T01:13:25.599Z,44.50
2023-04-05T01:15:52.339Z,44.50
2023-04-05T01:18:19.361Z,44.60
2023-04-05T01:20:51.878Z,44.60
2023-04-05T01:23:32.263Z,44.50
2023-04-05T01:26:28.776Z,44.50
2023-04-05T01:29:33.387Z,44.60
2023-04-05T01:32:07.593Z,44.60
2023-04-05T01:34:40.068Z,44.70
2023-04-05T01:37:11.615Z,44.70
2023-04-05T01:39:38.724Z,44.70
2023-04-05T01:42:05.748Z,44.70
2023-04-05T01:44:32.487Z,44.60
2023-04-05T01:46:59.226Z,44.70
2023-04-05T01:49:27.327Z,44.70
2023-04-05T01:51:54.097Z,44.60
2023-04-05T01:54:20.782Z,44.60
2023-04-05T01:56:47.544Z,44.60
2023-04-05T01:59:14.407Z,44.60
2023-04-05T02:01:41.125Z,44.70
2023-04-05T02:04:07.866Z,44.60
2023-04-05T02:06:35.944Z,44.70
2023-04-05T02:09:02.654Z,44.60
2023-04-05T02:11:29.344Z,44.70
2023-04-05T02:13:56.052Z,44.60
2023-04-05T02:16:22.760Z,44.60
2023-04-05T02:18:49.538Z,44.60
2023-04-05T02:21:16.403Z,44.60
2023-04-05T02:23:44.457Z,44.60
2023-04-05T02:26:11.165Z,44.70
2023-04-05T02:28:37.849Z,44.60
2023-04-05T02:31:09.032Z,44.70
2023-04-05T02:33:35.879Z,44.70
2023-04-05T02:36:04.809Z,44.80
2023-04-05T02:38:31.597Z,44.70
2023-04-05T02:40:59.749Z,44.70
2023-04-05T02:43:26.596Z,44.70
2023-04-05T02:45:53.365Z,44.70
2023-04-05T02:48:20.434Z,44.70
2023-04-05T02:50:47.896Z,44.70
2023-04-05T02:53:14.724Z,44.70
2023-04-05T02:55:41.432Z,44.70
2023-04-05T02:58:09.546Z,44.70
2023-04-05T03:00:36.225Z,44.70
2023-04-05T03:03:02.942Z,44.70
2023-04-05T03:05:29.711Z,44.80
2023-04-05T03:07:56.432Z,44.70
2023-04-05T03:10:23.213Z,44.70
2023-04-05T03:12:49.950Z,44.60
2023-04-05T03:15:17.996Z,44.70
2023-04-05T03:17:44.827Z,44.80
2023-04-05T03:20:12.944Z,44.60
2023-04-05T03:22:40.070Z,44.60
2023-04-05T03:25:07.499Z,44.60
2023-04-05T03:27:34.217Z,44.60
2023-04-05T03:30:01.358Z,44.70
2023-04-05T03:32:29.449Z,44.70
2023-04-05T03:34:56.168Z,44.70
2023-04-05T03:37:22.904Z,44.60
2023-04-05T03:39:49.672Z,44.60
2023-04-05T03:42:16.356Z,44.70
2023-04-05T03:44:43.177Z,44.60
2023-04-05T03:47:10.144Z,44.60
2023-04-05T03:49:38.170Z,44.60
2023-04-05T03:52:04.894Z,44.60
2023-04-05T03:54:31.845Z,44.60
2023-04-05T03:56:58.529Z,44.60
2023-04-05T03:59:25.324Z,44.60
2023-04-05T04:01:52.158Z,44.60
2023-04-05T04:04:19.064Z,44.60
2023-04-05T04:06:47.165Z,44.60
2023-04-05T04:09:13.901Z,44.60
2023-04-05T04:11:40.689Z,44.60
2023-04-05T04:14:08.159Z,44.60
2023-04-05T04:16:34.864Z,44.60
2023-04-05T04:19:01.667Z,44.60
2023-04-05T04:21:28.345Z,44.50
2023-04-05T04:23:56.368Z,44.50
2023-04-05T04:26:23.140Z,44.60
2023-04-05T04:28:49.872Z,44.60
2023-04-05T04:31:16.625Z,44.60
2023-04-05T04:33:43.307Z,44.60
2023-04-05T04:36:10.636Z,44.60
2023-04-05T04:38:37.273Z,44.60
2023-04-05T04:41:08.119Z,44.60
2023-04-05T04:43:34.805Z,44.60
2023-04-05T04:46:01.593Z,44.60
2023-04-05T04:48:28.299Z,44.70
2023-04-05T04:50:54.989Z,44.50
2023-04-05T04:53:23.995Z,44.50
2023-04-05T04:55:51.089Z,44.50
2023-04-05T04:58:19.118Z,44.50
2023-04-05T05:00:45.981Z,44.60
2023-04-05T05:03:13.005Z,44.50
2023-04-05T05:05:43.083Z,44.50
2023-04-05T05:08:09.852Z,44.50
2023-04-05T05:10:36.638Z,44.50
2023-04-05T05:13:03.392Z,44.50
2023-04-05T05:15:31.528Z,44.40
2023-04-05T05:17:58.387Z,44.40
2023-04-05T05:20:25.619Z,44.40
2023-04-05T05:22:52.274Z,44.40
2023-04-05T05:25:19.123Z,44.40
2023-04-05T05:27:49.156Z,44.50
2023-04-05T05:30:15.930Z,44.40
2023-04-05T05:32:44.047Z,44.40
2023-04-05T05:35:10.757Z,44.40
2023-04-05T05:37:37.747Z,44.50
2023-04-05T05:40:05.272Z,44.50
2023-04-05T05:42:32.007Z,44.60
2023-04-05T05:45:02.024Z,44.70
2023-04-05T05:47:28.721Z,44.80
2023-04-05T05:49:57.269Z,45.00
2023-04-05T05:52:24.100Z,45.20
2023-04-05T05:54:50.856Z,45.30
2023-04-05T05:57:17.678Z,45.50
2023-04-05T05:59:44.352Z,45.80
2023-04-05T06:02:11.061Z,46.10
2023-04-05T06:04:37.825Z,46.40
2023-04-05T06:07:06.020Z,46.90
2023-04-05T06:09:33.071Z,47.30
2023-04-05T06:11:59.925Z,47.60
2023-04-05T06:14:26.684Z,48.10
2023-04-05T06:16:53.439Z,48.50
2023-04-05T06:19:20.155Z,48.60
2023-04-05T06:21:46.858Z,49.40
2023-04-05T06:24:14.955Z,49.60
2023-04-05T06:26:41.726Z,49.60
2023-04-05T06:29:08.417Z,49.80
2023-04-05T06:31:35.949Z,49.70
2023-04-05T06:34:02.689Z,49.50
2023-04-05T06:36:31.245Z,49.40
2023-04-05T06:38:57.903Z,49.50
2023-04-05T06:41:26.085Z,49.60
2023-04-05T06:43:52.806Z,49.50
2023-04-05T06:46:19.651Z,49.30
2023-04-05T06:48:46.371Z,49.30
2023-04-05T06:51:13.114Z,49.10
2023-04-05T06:53:39.859Z,49.10
2023-04-05T06:56:07.269Z,49.00
2023-04-05T06:58:35.343Z,49.10
2023-04-05T07:01:02.277Z,49.20
2023-04-05T07:03:29.149Z,49.30
2023-04-05T07:05:57.377Z,50.00
2023-04-05T07:08:24.065Z,49.30
2023-04-05T07:10:51.741Z,49.20
2023-04-05T07:13:19.271Z,49.10
2023-04-05T07:15:47.684Z,49.20
2023-04-05T07:18:14.547Z,49.80
2023-04-05T07:20:41.837Z,49.70
2023-04-05T07:23:08.792Z,49.10
2023-04-05T07:25:35.587Z,48.60
2023-04-05T07:28:02.277Z,48.40
2023-04-05T07:30:29.372Z,48.40
2023-04-05T07:32:57.386Z,48.10
2023-04-05T07:35:24.541Z,47.70
2023-04-05T07:37:51.903Z,48.00
2023-04-05T07:40:18.919Z,47.00
2023-04-05T07:42:45.684Z,46.70
2023-04-05T07:45:12.405Z,45.80
2023-04-05T07:47:39.273Z,47.40
2023-04-05T07:50:08.733Z,47.20
2023-04-05T07:52:35.557Z,47.90
2023-04-05T07:55:02.222Z,45.50
2023-04-05T07:57:29.003Z,46.20
2023-04-05T07:59:55.892Z,46.90
2023-04-05T08:02:22.597Z,45.80
2023-04-05T08:04:49.416Z,46.40
2023-04-05T08:07:17.550Z,45.10
2023-04-05T08:09:44.213Z,43.80
2023-04-05T08:12:10.900Z,45.30
2023-04-05T08:14:37.693Z,44.80
2023-04-05T08:17:04.368Z,42.30
2023-04-05T08:19:31.121Z,42.70
2023-04-05T08:21:57.878Z,41.10
2023-04-05T08:24:26.015Z,41.70
2023-04-05T08:26:52.820Z,41.40
2023-04-05T08:29:19.520Z,38.50
2023-04-05T08:31:46.324Z,41.80
2023-04-05T08:34:13.030Z,42.40
2023-04-05T08:36:39.852Z,44.30
2023-04-05T08:39:06.739Z,44.00
2023-04-05T08:41:36.425Z,42.00
2023-04-05T08:44:04.367Z,40.70
2023-04-05T08:46:32.361Z,38.90
2023-04-05T08:48:59.879Z,40.10
2023-04-05T08:51:26.916Z,39.20
2023-04-05T08:53:54.064Z,41.60
2023-04-05T08:56:21.951Z,42.30
2023-04-05T08:58:56.920Z,41.40
2023-04-05T09:01:25.979Z,41.90
2023-04-05T09:03:53.928Z,40.90
2023-04-05T09:06:22.550Z,43.00
2023-04-05T09:08:49.799Z,45.20
2023-04-05T09:11:17.324Z,44.20
2023-04-05T09:13:44.072Z,38.50
2023-04-05T09:16:14.464Z,35.40
2023-04-05T09:18:42.094Z,35.00
2023-04-05T09:21:10.627Z,37.00
2023-04-05T09:23:37.737Z,40.70
2023-04-05T09:26:18.113Z,42.20
2023-04-05T09:28:45.295Z,41.50
2023-04-05T09:31:29.702Z,43.70
2023-04-05T09:33:58.302Z,38.40
2023-04-05T09:36:25.021Z,40.90
2023-04-05T09:38:51.729Z,42.60
2023-04-05T09:41:18.451Z,43.20
2023-04-05T09:43:45.235Z,40.90
2023-04-05T09:46:29.928Z,38.90
2023-04-05T09:48:56.730Z,39.10
2023-04-05T09:51:23.420Z,42.10
2023-04-05T09:54:00.273Z,43.30
2023-04-05T09:56:27.939Z,46.80
2023-04-05T09:58:59.408Z,43.30
2023-04-05T10:01:30.195Z,38.20
2023-04-05T10:03:57.889Z,39.30
2023-04-05T10:06:34.233Z,37.20
2023-04-05T10:09:01.956Z,36.40
2023-04-05T10:11:29.459Z,41.60
2023-04-05T10:13:57.500Z,38.90
2023-04-05T10:16:29.159Z,35.70
2023-04-05T10:18:55.924Z,36.20
2023-04-05T10:21:23.726Z,37.70
2023-04-05T10:24:01.199Z,34.80
2023-04-05T10:26:36.352Z,39.00
2023-04-05T10:29:12.032Z,38.30
2023-04-05T10:31:50.044Z,37.20
2023-04-05T10:34:28.500Z,39.20
2023-04-05T10:36:58.733Z,40.90
2023-04-05T10:39:28.063Z,42.10
2023-04-05T10:42:00.220Z,38.00
2023-04-05T10:44:30.293Z,41.40
2023-04-05T10:46:59.044Z,41.30
2023-04-05T10:49:32.521Z,44.40
2023-04-05T10:51:59.544Z,35.40
2023-04-05T10:54:27.237Z,35.50
2023-04-05T10:56:54.871Z,39.20
2023-04-05T10:59:22.441Z,46.30
2023-04-05T11:01:49.790Z,44.10
2023-04-05T11:04:18.279Z,42.60
2023-04-05T11:06:45.071Z,38.10
2023-04-05T11:09:13.792Z,40.40
2023-04-05T11:11:41.342Z,36.70
2023-04-05T11:14:19.641Z,37.90
2023-04-05T11:16:48.412Z,40.40
2023-04-05T11:19:18.184Z,35.50
2023-04-05T11:21:44.977Z,35.50
2023-04-05T11:24:12.829Z,35.10
2023-04-05T11:26:56.383Z,35.30
2023-04-05T11:29:48.009Z,36.80
2023-04-05T11:32:15.131Z,35.20
2023-04-05T11:34:59.686Z,43.30
2023-04-05T11:38:05.796Z,40.00
2023-04-05T11:40:34.135Z,42.40
2023-04-05T11:43:05.612Z,40.70
2023-04-05T11:45:33.276Z,33.30
2023-04-05T11:48:00.916Z,31.10
2023-04-05T11:50:29.095Z,35.60
2023-04-05T11:53:09.598Z,45.90
2023-04-05T11:55:36.463Z,47.80
2023-04-05T11:58:03.404Z,45.20
2023-04-05T12:00:30.211Z,47.00
2023-04-05T12:02:57.006Z,46.30
2023-04-05T12:05:23.888Z,48.60
2023-04-05T12:07:53.802Z,39.20
2023-04-05T12:10:20.742Z,35.00
2023-04-05T12:12:47.529Z,43.50
2023-04-05T12:15:15.185Z,45.50
2023-04-05T12:17:46.457Z,47.80
2023-04-05T12:20:15.321Z,48.70
2023-04-05T12:22:46.539Z,47.70
2023-04-05T12:25:15.634Z,48.10
2023-04-05T12:27:43.139Z,47.60
2023-04-05T12:30:12.476Z,37.60
2023-04-05T12:32:44.108Z,37.80
2023-04-05T12:35:11.488Z,42.50
2023-04-05T12:37:39.195Z,45.30
2023-04-05T12:40:07.170Z,45.80
2023-04-05T12:42:36.134Z,43.50
2023-04-05T12:45:04.823Z,38.90
2023-04-05T12:47:33.958Z,33.90
2023-04-05T12:50:10.977Z,31.70
2023-04-05T12:52:37.762Z,35.10
2023-04-05T12:55:14.250Z,33.20
2023-04-05T12:57:42.441Z,40.00
2023-04-05T13:00:10.411Z,42.40
2023-04-05T13:02:37.169Z,36.30
2023-04-05T13:05:04.219Z,39.90
2023-04-05T13:07:31.123Z,40.10
2023-04-05T13:09:57.935Z,38.90
2023-04-05T13:12:24.790Z,39.00
2023-04-05T13:14:52.893Z,36.60
2023-04-05T13:17:19.787Z,37.90
2023-04-05T13:19:46.719Z,38.60
2023-04-05T13:22:13.482Z,38.50
2023-04-05T13:24:40.227Z,38.60
2023-04-05T13:27:06.927Z,39.00
2023-04-05T13:29:33.594Z,38.90
2023-04-05T13:32:01.845Z,38.00
2023-04-05T13:34:28.589Z,34.40
2023-04-05T13:36:55.261Z,32.60
2023-04-05T13:39:22.028Z,35.60
2023-04-05T13:41:49.226Z,35.70
2023-04-05T13:44:15.915Z,32.50
2023-04-05T13:46:42.749Z,32.90
2023-04-05T13:49:10.858Z,36.50
2023-04-05T13:51:37.591Z,37.10
2023-04-05T13:54:04.431Z,40.30
2023-04-05T13:56:31.191Z,38.90
2023-04-05T13:58:58.026Z,37.50
2023-04-05T14:01:24.850Z,37.70
2023-04-05T14:03:52.438Z,36.40
2023-04-05T14:06:20.772Z,34.80
2023-04-05T14:08:47.684Z,35.90
2023-04-05T14:11:14.505Z,33.80
2023-04-05T14:13:41.213Z,35.30
2023-04-05T14:16:07.959Z,36.30
2023-04-05T14:18:34.674Z,36.00
2023-04-05T14:21:01.386Z,37.70
2023-04-05T14:23:29.574Z,36.50
2023-04-05T14:25:56.262Z,37.30
2023-04-05T14:28:23.026Z,38.40
2023-04-05T14:30:49.871Z,37.50
2023-04-05T14:33:16.659Z,37.80
2023-04-05T14:35:43.721Z,37.00
2023-04-05T14:38:11.294Z,34.10
2023-04-05T14:40:40.917Z,35.00
2023-04-05T14:43:08.224Z,32.50
2023-04-05T14:45:35.000Z,34.00
2023-04-05T14:48:02.034Z,35.40
2023-04-05T14:50:28.856Z,35.20
2023-04-05T14:52:55.670Z,34.90
2023-04-05T14:55:22.333Z,35.30
2023-04-05T14:57:50.736Z,35.20
2023-04-05T15:00:18.387Z,32.40
2023-04-05T15:02:45.656Z,34.50
2023-04-05T15:05:12.814Z,32.90
2023-04-05T15:07:39.640Z,34.00
2023-04-05T15:10:06.961Z,35.10
2023-04-05T15:12:33.772Z,35.60
2023-04-05T15:15:01.845Z,34.60
2023-04-05T15:17:28.611Z,35.30
2023-04-05T15:19:55.489Z,35.40
2023-04-05T15:22:23.018Z,35.40
2023-04-05T15:24:49.808Z,33.80
2023-04-05T15:27:16.691Z,34.60
2023-04-05T15:29:43.454Z,34.70
2023-04-05T15:32:11.631Z,31.90
2023-04-05T15:34:38.404Z,29.80
2023-04-05T15:37:05.099Z,32.90
2023-04-05T15:39:31.810Z,31.80
2023-04-05T15:41:58.710Z,30.10
2023-04-05T15:44:25.597Z,32.90
2023-04-05T15:46:52.424Z,32.80
2023-04-05T15:49:20.411Z,34.00
2023-04-05T15:51:47.341Z,31.30
2023-04-05T15:54:14.093Z,31.70
2023-04-05T15:56:40.815Z,30.70
2023-04-05T15:59:07.585Z,33.00
2023-04-05T16:01:34.360Z,35.00
2023-04-05T16:04:01.300Z,36.90
2023-04-05T16:06:29.513Z,36.40
2023-04-05T16:08:56.299Z,34.90
2023-04-05T16:11:23.600Z,35.80
2023-04-05T16:13:50.334Z,36.90
2023-04-05T16:16:32.025Z,37.40
2023-04-05T16:19:03.997Z,37.60
2023-04-05T16:21:32.341Z,38.60
2023-04-05T16:23:59.120Z,37.70
2023-04-05T16:26:25.863Z,38.70
2023-04-05T16:28:52.593Z,39.00
2023-04-05T16:31:19.376Z,39.60
2023-04-05T16:33:46.068Z,39.60
2023-04-05T16:36:12.869Z,38.90
2023-04-05T16:38:40.992Z,40.00
2023-04-05T16:41:07.728Z,40.00
2023-04-05T16:43:34.495Z,39.90
2023-04-05T16:46:01.319Z,40.20
2023-04-05T16:48:27.994Z,39.60
2023-04-05T16:50:54.706Z,39.80
2023-04-05T16:53:21.475Z,39.80
2023-04-05T16:55:49.525Z,39.30
2023-04-05T16:58:16.355Z,37.10
2023-04-05T17:00:43.078Z,39.60
2023-04-05T17:03:09.959Z,40.00
2023-04-05T17:05:36.789Z,40.60
2023-04-05T17:08:03.527Z,40.60
2023-04-05T17:10:30.280Z,40.70
2023-04-05T17:12:58.460Z,39.10
2023-04-05T17:15:25.146Z,38.70
2023-04-05T17:17:51.954Z,38.50
2023-04-05T17:20:18.879Z,39.80
2023-04-05T17:22:45.743Z,39.10
2023-04-05T17:25:12.495Z,39.10
2023-04-05T17:27:39.168Z,38.00
2023-04-05T17:30:08.865Z,37.60
2023-04-05T17:32:35.568Z,36.80
2023-04-05T17:35:02.284Z,38.30
2023-04-05T17:37:28.966Z,38.60
2023-04-05T17:39:55.681Z,39.80
2023-04-05T17:42:22.377Z,40.30
2023-04-05T17:44:49.104Z,40.60
2023-04-05T17:47:17.199Z,39.90
2023-04-05T17:49:43.985Z,40.60
2023-04-05T17:52:10.675Z,41.00
2023-04-05T17:54:38.019Z,40.80
2023-04-05T17:57:05.249Z,40.90
2023-04-05T17:59:32.206Z,40.40
2023-04-05T18:01:58.949Z,40.10
2023-04-05T18:04:27.187Z,40.80
2023-04-05T18:06:53.933Z,40.00
2023-04-05T18:09:20.684Z,41.00
2023-04-05T18:11:47.319Z,41.10
2023-04-05T18:14:14.026Z,40.40
2023-04-05T18:16:40.778Z,40.60
2023-04-05T18:19:07.660Z,40.80
2023-04-05T18:21:35.824Z,41.00
2023-04-05T18:24:02.473Z,41.10
2023-04-05T18:26:30.202Z,41.50
2023-04-05T18:28:56.876Z,41.80
2023-04-05T18:31:23.711Z,41.60
2023-04-05T18:33:50.438Z,41.50
2023-04-05T18:36:17.170Z,41.10
2023-04-05T18:38:45.191Z,41.60
2023-04-05T18:41:11.928Z,41.30
2023-04-05T18:43:38.720Z,41.50
2023-04-05T18:46:05.540Z,41.60
2023-04-05T18:48:32.222Z,40.90
2023-04-05T18:50:58.924Z,40.50
2023-04-05T18:53:25.835Z,40.30
2023-04-05T18:55:54.289Z,40.30
2023-04-05T18:58:21.017Z,40.50
2023-04-05T19:00:47.675Z,41.10
2023-04-05T19:03:15.757Z,39.60
2023-04-05T19:05:47.893Z,40.00
2023-04-05T19:08:14.595Z,40.10
2023-04-05T19:10:42.106Z,40.10
2023-04-05T19:13:10.188Z,40.30
2023-04-05T19:15:37.390Z,40.90
2023-04-05T19:18:04.625Z,41.20
2023-04-05T19:20:31.341Z,41.10
2023-04-05T19:22:58.132Z,40.60
2023-04-05T19:25:24.864Z,40.80
2023-04-05T19:27:51.565Z,40.80
2023-04-05T19:30:19.875Z,41.60
2023-04-05T19:32:46.601Z,41.30
2023-04-05T19:35:13.492Z,41.30
2023-04-05T19:37:40.236Z,41.20
2023-04-05T19:40:08.387Z,41.20
2023-04-05T19:42:35.248Z,41.50
2023-04-05T19:45:01.950Z,41.70
2023-04-05T19:47:30.109Z,41.90
2023-04-05T19:49:59.671Z,41.70
2023-04-05T19:52:39.361Z,42.00
2023-04-05T19:55:26.875Z,41.90
2023-04-05T19:57:54.297Z,41.80
2023-04-05T20:00:33.203Z,42.30
2023-04-05T20:03:01.354Z,42.00
2023-04-05T20:05:57.344Z,42.30
2023-04-05T20:08:24.039Z,42.00
2023-04-05T20:10:50.681Z,42.40
2023-04-05T20:13:17.431Z,42.40
2023-04-05T20:15:47.697Z,42.40
2023-04-05T20:18:21.719Z,42.40
2023-04-05T20:20:48.466Z,42.30
2023-04-05T20:23:18.587Z,42.40
2023-04-05T20:25:45.688Z,42.50
2023-04-05T20:28:32.358Z,42.60
2023-04-05T20:30:59.046Z,42.40
2023-04-05T20:33:44.720Z,42.70
2023-04-05T20:36:11.800Z,42.50
2023-04-05T20:38:38.622Z,42.70
2023-04-05T20:41:05.376Z,42.50
2023-04-05T20:43:32.114Z,42.40
2023-04-05T20:45:59.472Z,42.40
2023-04-05T20:48:26.156Z,42.50
2023-04-05T20:50:54.238Z,42.60
2023-04-05T20:53:21.068Z,42.70
2023-04-05T20:55:47.754Z,42.70
2023-04-05T20:58:14.526Z,42.50
2023-04-05T21:00:41.299Z,42.60
2023-04-05T21:03:08.185Z,42.60
2023-04-05T21:05:34.967Z,42.60
2023-04-05T21:08:03.026Z,42.60
2023-04-05T21:10:29.841Z,42.60
2023-04-05T21:12:56.595Z,43.60
2023-04-05T21:15:23.279Z,43.10
2023-04-05T21:17:49.953Z,43.20
2023-04-05T21:20:16.633Z,43.30
2023-04-05T21:22:43.293Z,43.30
2023-04-05T21:25:11.410Z,43.30
2023-04-05T21:27:38.122Z,43.00
2023-04-05T21:30:05.791Z,43.30
2023-04-05T21:32:32.468Z,43.50
2023-04-05T21:34:59.148Z,44.40
2023-04-05T21:37:25.779Z,44.50
2023-04-05T21:39:52.441Z,44.50
2023-04-05T21:42:20.400Z,44.60
2023-04-05T21:44:47.074Z,44.60
2023-04-05T21:47:13.809Z,44.80
2023-04-05T21:49:40.490Z,44.50
2023-04-05T21:52:07.147Z,44.50
2023-04-05T21:54:33.835Z,44.50
2023-04-05T21:57:00.510Z,44.60
2023-04-05T21:59:28.604Z,44.70
2023-04-05T22:01:55.337Z,44.70
2023-04-05T22:04:22.029Z,44.70
2023-04-05T22:06:48.670Z,44.60
2023-04-05T22:09:15.346Z,44.60
2023-04-05T22:11:42.058Z,44.70
2023-04-05T22:14:08.746Z,44.60
2023-04-05T22:16:36.802Z,44.60
2023-04-05T22:19:03.517Z,44.50
2023-04-05T22:21:30.203Z,44.70
2023-04-05T22:23:56.872Z,44.80
2023-04-05T22:26:23.534Z,44.70
2023-04-05T22:28:50.205Z,44.80
2023-04-05T22:31:16.886Z,44.80
2023-04-05T22:33:44.859Z,44.80
2023-04-05T22:36:11.535Z,44.70
2023-04-05T22:38:38.300Z,44.80
2023-04-05T22:41:05.043Z,44.80
2023-04-05T22:43:31.735Z,44.80
2023-04-05T22:45:58.397Z,44.80
2023-04-05T22:48:25.326Z,44.80
2023-04-05T22:50:53.323Z,44.80
2023-04-05T22:53:19.998Z,44.80
2023-04-05T22:55:46.676Z,44.70
2023-04-05T22:58:13.390Z,44.80
2023-04-05T23:00:40.111Z,44.80
2023-04-05T23:03:06.967Z,44.80
2023-04-05T23:05:33.657Z,44.90
2023-04-05T23:08:01.646Z,44.90
2023-04-05T23:10:28.463Z,44.70
2023-04-05T23:12:55.234Z,44.80
2023-04-05T23:15:21.990Z,44.90
2023-04-05T23:17:48.687Z,44.90
2023-04-05T23:20:15.707Z,44.80
2023-04-05T23:22:42.503Z,44.90
2023-04-05T23:25:10.854Z,44.80
2023-04-05T23:27:37.515Z,44.80
2023-04-05T23:30:05.239Z,45.10
2023-04-05T23:32:32.042Z,45.00
2023-04-05T23:34:58.801Z,45.00
2023-04-05T23:37:25.483Z,45.00
2023-04-05T23:39:52.190Z,45.00
2023-04-05T23:42:20.233Z,45.00
2023-04-05T23:44:46.894Z,44.90
2023-04-05T23:47:13.585Z,45.00
2023-04-05T23:49:40.284Z,45.00
2023-04-05T23:52:06.938Z,45.00
2023-04-05T23:54:33.626Z,45.00
2023-04-05T23:57:00.285Z,45.00
2023-04-05T23:59:28.361Z,45.00
